createdAt,value
2018-02-01T00:01:28.251Z,64.50
2018-02-01T00:03:54.818Z,64.50
2018-02-01T00:06:22.183Z,65.20
2018-02-01T00:08:48.760Z,65.20
2018-02-01T00:11:15.409Z,64.80
2018-02-01T00:13:42.026Z,65.10
2018-02-01T00:16:08.607Z,65.70
2018-02-01T00:18:35.481Z,65.90
2018-02-01T00:21:02.138Z,64.80
2018-02-01T00:23:28.742Z,64.80
2018-02-01T00:25:55.498Z,65.10
2018-02-01T00:28:22.074Z,65.10
2018-02-01T00:30:48.692Z,64.80
2018-02-01T00:33:15.293Z,64.40
2018-02-01T00:35:41.945Z,64.30
2018-02-01T00:38:08.595Z,64.90
2018-02-01T00:40:35.269Z,65.50
2018-02-01T00:43:01.877Z,65.80
2018-02-01T00:45:28.575Z,65.50
2018-02-01T00:47:55.231Z,65.30
2018-02-01T00:50:21.850Z,65.20
2018-02-01T00:52:49.226Z,65.60
2018-02-01T00:55:15.836Z,65.50
2018-02-01T00:57:42.438Z,65.00
2018-02-01T01:00:09.154Z,64.30
2018-02-01T01:02:35.756Z,63.70
2018-02-01T01:05:03.161Z,64.50
2018-02-01T01:07:29.778Z,64.50
2018-02-01T01:09:56.343Z,64.70
2018-02-01T01:12:22.937Z,64.30
2018-02-01T01:14:49.564Z,64.70
2018-02-01T01:17:16.966Z,64.80
2018-02-01T01:19:44.325Z,64.90
2018-02-01T01:22:10.890Z,64.90
2018-02-01T01:24:37.504Z,65.30
2018-02-01T01:27:04.142Z,65.40
2018-02-01T01:29:31.514Z,64.80
2018-02-01T01:31:58.143Z,64.80
2018-02-01T01:34:24.769Z,64.30
2018-02-01T01:36:51.415Z,64.20
2018-02-01T01:39:18.010Z,64.40
2018-02-01T01:41:44.614Z,65.00
2018-02-01T01:44:12.000Z,65.00
2018-02-01T01:46:38.751Z,65.00
2018-02-01T01:49:05.333Z,65.00
2018-02-01T01:51:31.977Z,64.50
2018-02-01T01:53:58.702Z,64.80
2018-02-01T01:56:25.339Z,65.10
2018-02-01T01:58:51.966Z,65.10
2018-02-01T02:01:18.542Z,64.50
2018-02-01T02:03:45.178Z,64.00
2018-02-01T02:06:11.801Z,64.00
2018-02-01T02:08:38.393Z,64.30
2018-02-01T02:11:04.989Z,64.20
2018-02-01T02:13:31.633Z,63.90
2018-02-01T02:15:58.994Z,64.00
2018-02-01T02:18:25.558Z,64.00
2018-02-01T02:20:52.289Z,64.20
2018-02-01T02:23:18.944Z,64.60
2018-02-01T02:25:45.577Z,64.80
2018-02-01T02:28:12.200Z,65.10
2018-02-01T02:30:38.819Z,65.60
2018-02-01T02:33:05.422Z,65.00
2018-02-01T02:35:32.034Z,65.20
2018-02-01T02:37:58.597Z,65.00
2018-02-01T02:40:25.986Z,63.90
2018-02-01T02:42:52.631Z,63.90
2018-02-01T02:45:19.205Z,63.60
2018-02-01T02:47:45.784Z,63.10
2018-02-01T02:50:13.139Z,63.20
2018-02-01T02:52:39.767Z,63.20
2018-02-01T02:55:06.421Z,62.60
2018-02-01T02:57:33.724Z,62.70
2018-02-01T03:00:00.326Z,62.70
2018-02-01T03:02:26.934Z,62.40
2018-02-01T03:04:54.294Z,63.00
2018-02-01T03:07:21.631Z,63.20
2018-02-01T03:09:49.071Z,62.60
2018-02-01T03:12:15.711Z,62.50
2018-02-01T03:14:42.351Z,62.80
2018-02-01T03:17:08.999Z,63.10
2018-02-01T03:19:35.590Z,62.80
2018-02-01T03:22:02.219Z,62.60
2018-02-01T03:24:28.819Z,62.60
2018-02-01T03:26:56.139Z,63.30
2018-02-01T03:29:22.746Z,63.20
2018-02-01T03:31:49.358Z,63.50
2018-02-01T03:34:15.974Z,63.80
2018-02-01T03:36:43.398Z,63.80
2018-02-01T03:39:09.950Z,63.70
2018-02-01T03:41:36.551Z,63.40
2018-02-01T03:44:03.148Z,63.30
2018-02-01T03:46:30.491Z,63.80
2018-02-01T03:48:57.099Z,63.50
2018-02-01T03:51:23.699Z,63.70
2018-02-01T03:53:50.303Z,63.70
2018-02-01T03:56:16.938Z,64.00
2018-02-01T03:58:43.499Z,64.00
2018-02-01T04:01:10.098Z,63.90
2018-02-01T04:03:36.809Z,64.10
2018-02-01T04:06:04.151Z,64.60
2018-02-01T04:08:30.730Z,64.50
2018-02-01T04:10:57.355Z,64.60
2018-02-01T04:13:23.946Z,64.20
2018-02-01T04:15:50.684Z,63.90
2018-02-01T04:18:17.342Z,63.40
2018-02-01T04:20:43.935Z,63.70
2018-02-01T04:23:10.530Z,63.70
2018-02-01T04:25:37.134Z,64.80
2018-02-01T04:28:04.434Z,63.90
2018-02-01T04:30:31.033Z,63.70
2018-02-01T04:32:57.651Z,63.20
2018-02-01T04:35:24.950Z,63.90
2018-02-01T04:37:51.566Z,63.90
2018-02-01T04:40:18.219Z,64.60
2018-02-01T04:42:44.823Z,65.00
2018-02-01T04:45:11.463Z,64.20
2018-02-01T04:47:38.839Z,64.40
2018-02-01T04:50:05.439Z,63.50
2018-02-01T04:52:32.748Z,63.70
2018-02-01T04:54:59.357Z,63.70
2018-02-01T04:57:25.939Z,64.00
2018-02-01T04:59:52.584Z,64.00
2018-02-01T05:02:19.160Z,64.00
2018-02-01T05:04:45.880Z,63.90
2018-02-01T05:07:13.249Z,63.90
2018-02-01T05:09:39.848Z,64.60
2018-02-01T05:12:06.429Z,63.60
2018-02-01T05:14:32.994Z,63.40
2018-02-01T05:16:59.668Z,63.70
2018-02-01T05:19:26.283Z,64.30
2018-02-01T05:21:52.885Z,64.50
2018-02-01T05:24:19.450Z,64.20
2018-02-01T05:26:46.070Z,64.00
2018-02-01T05:29:12.665Z,63.70
2018-02-01T05:31:39.994Z,63.80
2018-02-01T05:34:07.423Z,64.20
2018-02-01T05:36:34.044Z,64.10
2018-02-01T05:39:00.643Z,64.10
2018-02-01T05:41:27.981Z,64.40
2018-02-01T05:43:54.591Z,64.30
2018-02-01T05:46:21.179Z,64.30
2018-02-01T05:48:48.525Z,64.70
2018-02-01T05:51:15.878Z,65.10
2018-02-01T05:53:42.543Z,64.90
2018-02-01T05:56:09.101Z,64.90
2018-02-01T05:58:36.014Z,64.40
2018-02-01T06:01:03.526Z,64.40
2018-02-01T06:03:30.133Z,64.40
2018-02-01T06:05:56.747Z,64.00
2018-02-01T06:08:23.375Z,64.00
2018-02-01T06:10:50.807Z,63.50
2018-02-01T06:13:18.185Z,63.30
2018-02-01T06:15:44.834Z,63.10
2018-02-01T06:18:11.480Z,63.20
2018-02-01T06:20:38.068Z,63.50
2018-02-01T06:23:04.706Z,63.40
2018-02-01T06:25:31.394Z,63.30
2018-02-01T06:27:58.003Z,63.70
2018-02-01T06:30:24.703Z,64.30
2018-02-01T06:32:51.281Z,64.50
2018-02-01T06:35:18.630Z,64.10
2018-02-01T06:37:45.237Z,63.90
2018-02-01T06:40:11.862Z,64.00
2018-02-01T06:42:38.785Z,63.00
2018-02-01T06:45:05.442Z,63.00
2018-02-01T06:47:32.028Z,62.60
2018-02-01T06:49:58.641Z,62.80
2018-02-01T06:52:25.226Z,62.80
2018-02-01T06:54:51.848Z,63.30
2018-02-01T06:57:19.198Z,63.20
2018-02-01T06:59:46.556Z,63.50
2018-02-01T07:02:13.910Z,63.70
2018-02-01T07:04:41.310Z,63.30
2018-02-01T07:07:07.898Z,63.20
2018-02-01T07:09:34.498Z,62.90
2018-02-01T07:12:01.079Z,62.80
2018-02-01T07:14:27.786Z,62.40
2018-02-01T07:16:55.148Z,62.50
2018-02-01T07:19:22.496Z,62.00
2018-02-01T07:21:49.855Z,62.20
2018-02-01T07:24:16.423Z,62.10
2018-02-01T07:26:43.049Z,61.00
2018-02-01T07:29:09.669Z,60.30
2018-02-01T07:31:36.990Z,60.10
2018-02-01T07:34:03.652Z,60.00
2018-02-01T07:36:30.217Z,60.00
2018-02-01T07:38:56.908Z,59.00
2018-02-01T07:41:23.498Z,59.10
2018-02-01T07:43:50.934Z,58.50
2018-02-01T07:46:22.601Z,58.40
2018-02-01T07:48:49.233Z,58.20
2018-02-01T07:51:15.823Z,57.40
2018-02-01T07:53:42.482Z,56.40
2018-02-01T07:56:09.091Z,56.60
2018-02-01T07:58:35.703Z,54.70
2018-02-01T08:01:02.331Z,54.40
2018-02-01T08:03:28.940Z,53.80
2018-02-01T08:05:56.263Z,54.80
2018-02-01T08:08:22.917Z,54.80
2018-02-01T08:10:49.538Z,55.20
2018-02-01T08:13:16.145Z,56.20
2018-02-01T08:15:42.853Z,55.60
2018-02-01T08:18:10.219Z,54.30
2018-02-01T08:20:36.837Z,54.20
2018-02-01T08:23:04.178Z,53.30
2018-02-01T08:25:30.906Z,53.20
2018-02-01T08:27:58.302Z,53.30
2018-02-01T08:30:25.629Z,53.40
2018-02-01T08:32:52.261Z,54.10
2018-02-01T08:35:18.840Z,55.00
2018-02-01T08:37:46.158Z,54.40
2018-02-01T08:40:12.760Z,54.30
2018-02-01T08:42:39.368Z,55.40
2018-02-01T08:45:05.999Z,55.50
2018-02-01T08:47:32.577Z,56.60
2018-02-01T08:49:59.251Z,56.70
2018-02-01T08:52:25.878Z,56.80
2018-02-01T08:54:53.562Z,56.60
2018-02-01T08:57:20.892Z,56.20
2018-02-01T08:59:47.511Z,56.20
2018-02-01T09:02:14.115Z,56.10
2018-02-01T09:04:40.718Z,56.10
2018-02-01T09:07:07.307Z,56.90
2018-02-01T09:09:33.867Z,56.70
2018-02-01T09:12:00.462Z,56.00
2018-02-01T09:14:27.310Z,55.60
2018-02-01T09:16:54.010Z,55.10
2018-02-01T09:19:20.584Z,54.30
2018-02-01T09:21:47.183Z,54.80
2018-02-01T09:24:13.770Z,54.20
2018-02-01T09:26:40.415Z,54.80
2018-02-01T09:29:07.103Z,55.40
2018-02-01T09:31:33.707Z,54.80
2018-02-01T09:34:00.341Z,55.20
2018-02-01T09:36:26.940Z,55.00
2018-02-01T09:38:53.541Z,54.90
2018-02-01T09:41:21.117Z,55.10
2018-02-01T09:43:47.847Z,55.10
2018-02-01T09:46:15.191Z,53.90
2018-02-01T09:48:41.856Z,53.90
2018-02-01T09:51:08.440Z,53.90
2018-02-01T09:53:35.028Z,53.60
2018-02-01T09:56:02.392Z,53.20
2018-02-01T09:58:29.096Z,53.20
2018-02-01T10:00:55.660Z,52.10
2018-02-01T10:03:22.332Z,52.20
2018-02-01T10:05:48.940Z,52.30
2018-02-01T10:08:15.541Z,52.40
2018-02-01T10:10:42.071Z,52.60
2018-02-01T10:13:08.711Z,53.40
2018-02-01T10:15:35.254Z,53.90
2018-02-01T10:18:02.633Z,52.30
2018-02-01T10:20:29.234Z,52.20
2018-02-01T10:22:55.999Z,52.70
2018-02-01T10:25:23.322Z,52.40
2018-02-01T10:27:49.946Z,52.40
2018-02-01T10:30:16.613Z,53.30
2018-02-01T10:32:43.161Z,52.20
2018-02-01T10:35:10.514Z,52.30
2018-02-01T10:37:37.850Z,52.10
2018-02-01T10:40:04.437Z,52.10
2018-02-01T10:42:30.994Z,52.30
2018-02-01T10:44:57.593Z,50.70
2018-02-01T10:47:24.300Z,51.50
2018-02-01T10:49:50.843Z,51.80
2018-02-01T10:52:17.444Z,51.40
2018-02-01T10:54:44.054Z,51.80
2018-02-01T10:57:10.665Z,50.80
2018-02-01T10:59:37.199Z,51.80
2018-02-01T11:02:04.578Z,53.00
2018-02-01T11:04:31.226Z,52.90
2018-02-01T11:06:57.838Z,52.10
2018-02-01T11:09:25.371Z,51.00
2018-02-01T11:11:52.032Z,50.90
2018-02-01T11:14:18.614Z,51.40
2018-02-01T11:16:45.268Z,51.90
2018-02-01T11:19:11.787Z,52.60
2018-02-01T11:21:38.402Z,51.80
2018-02-01T11:24:05.004Z,51.60
2018-02-01T11:26:31.621Z,51.00
2018-02-01T11:28:58.159Z,50.90
2018-02-01T11:31:25.179Z,51.00
2018-02-01T11:33:51.891Z,50.90
2018-02-01T11:36:18.491Z,51.50
2018-02-01T11:38:45.131Z,52.10
2018-02-01T11:41:12.470Z,50.90
2018-02-01T11:43:39.135Z,50.90
2018-02-01T11:46:08.138Z,50.30
2018-02-01T11:48:34.722Z,50.50
2018-02-01T11:51:01.343Z,50.50
2018-02-01T11:53:27.986Z,49.80
2018-02-01T11:55:54.594Z,49.80
2018-02-01T11:58:21.214Z,50.80
2018-02-01T12:00:47.807Z,49.70
2018-02-01T12:03:14.448Z,50.40
2018-02-01T12:05:41.035Z,49.70
2018-02-01T12:08:07.600Z,49.40
2018-02-01T12:10:34.218Z,48.80
2018-02-01T12:13:00.847Z,49.90
2018-02-01T12:15:27.380Z,50.70
2018-02-01T12:17:53.932Z,49.20
2018-02-01T12:20:20.493Z,49.50
2018-02-01T12:22:47.051Z,49.60
2018-02-01T12:25:13.669Z,49.70
2018-02-01T12:27:40.215Z,49.10
2018-02-01T12:30:06.780Z,50.40
2018-02-01T12:32:33.332Z,50.60
2018-02-01T12:34:59.961Z,50.50
2018-02-01T12:37:26.555Z,50.50
2018-02-01T12:39:53.050Z,50.90
2018-02-01T12:42:19.616Z,50.50
2018-02-01T12:44:46.182Z,50.20
2018-02-01T12:47:12.786Z,49.20
2018-02-01T12:49:40.091Z,48.90
2018-02-01T12:52:06.635Z,48.90
2018-02-01T12:54:33.190Z,48.00
2018-02-01T12:56:59.764Z,48.00
2018-02-01T12:59:26.430Z,49.30
2018-02-01T13:01:52.951Z,47.40
2018-02-01T13:04:19.518Z,46.90
2018-02-01T13:06:46.051Z,47.40
2018-02-01T13:09:12.695Z,47.20
2018-02-01T13:11:39.268Z,46.60
2018-02-01T13:14:05.806Z,45.20
2018-02-01T13:16:32.471Z,45.20
2018-02-01T13:18:59.791Z,46.10
2018-02-01T13:21:27.086Z,45.80
2018-02-01T13:23:53.740Z,45.60
2018-02-01T13:26:20.287Z,45.00
2018-02-01T13:28:47.806Z,44.00
2018-02-01T13:31:14.543Z,44.10
2018-02-01T13:33:41.172Z,44.80
2018-02-01T13:36:07.876Z,44.50
2018-02-01T13:38:35.195Z,44.40
2018-02-01T13:41:01.834Z,44.20
2018-02-01T13:43:28.382Z,44.00
2018-02-01T13:45:55.934Z,44.40
2018-02-01T13:48:22.513Z,43.80
2018-02-01T13:50:49.922Z,44.20
2018-02-01T13:53:16.527Z,44.10
2018-02-01T13:55:43.186Z,44.20
2018-02-01T13:58:09.720Z,44.10
2018-02-01T14:00:36.310Z,43.60
2018-02-01T14:03:02.894Z,44.00
2018-02-01T14:05:29.526Z,43.70
2018-02-01T14:07:56.107Z,44.20
2018-02-01T14:10:23.411Z,44.10
2018-02-01T14:12:50.042Z,44.00
2018-02-01T14:15:16.622Z,43.60
2018-02-01T14:17:43.157Z,44.00
2018-02-01T14:20:09.832Z,44.60
2018-02-01T14:22:36.403Z,44.10
2018-02-01T14:25:02.992Z,43.80
2018-02-01T14:27:29.547Z,43.60
2018-02-01T14:29:56.132Z,42.90
2018-02-01T14:32:22.756Z,44.30
2018-02-01T14:34:49.350Z,43.90
2018-02-01T14:37:15.963Z,43.30
2018-02-01T14:39:42.490Z,43.40
2018-02-01T14:42:09.064Z,43.30
2018-02-01T14:44:35.611Z,43.80
2018-02-01T14:47:02.200Z,43.60
2018-02-01T14:49:29.674Z,43.80
2018-02-01T14:51:56.965Z,43.70
2018-02-01T14:54:23.521Z,43.70
2018-02-01T14:56:50.085Z,44.20
2018-02-01T14:59:17.400Z,43.60
2018-02-01T15:01:43.973Z,43.60
2018-02-01T15:04:10.528Z,44.00
2018-02-01T15:06:37.840Z,43.60
2018-02-01T15:09:04.471Z,43.40
2018-02-01T15:11:31.018Z,44.20
2018-02-01T15:13:57.622Z,43.90
2018-02-01T15:16:24.285Z,44.20
2018-02-01T15:18:50.807Z,44.30
2018-02-01T15:21:17.338Z,44.00
2018-02-01T15:23:43.982Z,44.30
2018-02-01T15:26:10.550Z,44.30
2018-02-01T15:28:37.097Z,44.80
2018-02-01T15:31:04.395Z,44.60
2018-02-01T15:33:31.047Z,44.60
2018-02-01T15:35:57.623Z,45.20
2018-02-01T15:38:24.964Z,45.30
2018-02-01T15:40:51.536Z,45.30
2018-02-01T15:43:18.132Z,45.30
2018-02-01T15:45:44.694Z,45.80
2018-02-01T15:48:13.097Z,45.70
2018-02-01T15:50:39.609Z,45.60
2018-02-01T15:53:06.882Z,46.20
2018-02-01T15:55:33.551Z,46.30
2018-02-01T15:58:00.099Z,46.60
2018-02-01T16:00:26.761Z,46.30
2018-02-01T16:02:53.314Z,46.40
2018-02-01T16:05:19.878Z,46.40
2018-02-01T16:07:46.494Z,46.40
2018-02-01T16:10:13.078Z,46.60
2018-02-01T16:12:39.705Z,46.80
2018-02-01T16:15:06.306Z,46.60
2018-02-01T16:17:32.920Z,46.90
2018-02-01T16:20:00.290Z,47.40
2018-02-01T16:22:27.642Z,47.00
2018-02-01T16:24:54.222Z,46.90
2018-02-01T16:27:20.794Z,46.80
2018-02-01T16:29:47.395Z,46.50
2018-02-01T16:32:14.045Z,46.10
2018-02-01T16:34:40.634Z,45.60
2018-02-01T16:37:07.215Z,46.30
2018-02-01T16:39:33.795Z,46.40
2018-02-01T16:42:01.159Z,46.80
2018-02-01T16:44:27.727Z,46.70
2018-02-01T16:46:54.299Z,46.40
2018-02-01T16:49:21.662Z,46.60
2018-02-01T16:51:49.195Z,46.50
2018-02-01T16:54:15.762Z,46.20
2018-02-01T16:56:43.097Z,46.40
2018-02-01T16:59:09.665Z,46.40
2018-02-01T17:01:36.245Z,46.30
2018-02-01T17:04:02.891Z,46.50
2018-02-01T17:06:29.479Z,46.70
2018-02-01T17:08:56.058Z,47.10
2018-02-01T17:11:22.662Z,47.80
2018-02-01T17:13:49.195Z,48.50
2018-02-01T17:16:15.741Z,49.40
2018-02-01T17:18:42.351Z,49.40
2018-02-01T17:21:09.683Z,49.40
2018-02-01T17:23:36.266Z,49.30
2018-02-01T17:26:02.853Z,49.30
2018-02-01T17:28:29.409Z,49.30
2018-02-01T17:30:56.740Z,49.30
2018-02-01T17:33:23.275Z,49.30
2018-02-01T17:35:50.443Z,49.70
2018-02-01T17:38:17.817Z,49.40
2018-02-01T17:40:44.399Z,49.40
2018-02-01T17:43:10.955Z,49.30
2018-02-01T17:45:38.309Z,49.40
2018-02-01T17:48:04.899Z,49.30
2018-02-01T17:50:31.491Z,48.60
2018-02-01T17:52:58.795Z,49.00
2018-02-01T17:55:25.388Z,48.90
2018-02-01T17:57:51.965Z,49.10
2018-02-01T18:00:18.575Z,49.40
2018-02-01T18:02:45.178Z,49.30
2018-02-01T18:05:11.787Z,49.20
2018-02-01T18:07:38.362Z,49.80
2018-02-01T18:10:04.924Z,49.40
2018-02-01T18:12:31.530Z,49.80
2018-02-01T18:14:58.122Z,49.30
2018-02-01T18:17:24.706Z,49.80
2018-02-01T18:19:52.126Z,50.20
2018-02-01T18:22:18.714Z,50.00
2018-02-01T18:24:45.263Z,50.10
2018-02-01T18:27:11.817Z,50.90
2018-02-01T18:29:38.416Z,50.80
2018-02-01T18:32:05.729Z,50.70
2018-02-01T18:34:32.330Z,50.60
2018-02-01T18:36:59.043Z,51.30
2018-02-01T18:39:26.341Z,51.50
2018-02-01T18:41:53.827Z,51.40
2018-02-01T18:44:20.376Z,51.30
2018-02-01T18:46:46.998Z,51.40
2018-02-01T18:49:13.596Z,51.50
2018-02-01T18:51:40.270Z,50.90
2018-02-01T18:54:06.850Z,51.30
2018-02-01T18:56:33.402Z,51.10
2018-02-01T18:59:00.012Z,50.50
2018-02-01T19:01:26.585Z,51.00
2018-02-01T19:03:53.200Z,50.80
2018-02-01T19:06:19.771Z,50.70
2018-02-01T19:08:46.339Z,50.90
2018-02-01T19:11:12.934Z,50.70
2018-02-01T19:13:39.482Z,50.20
2018-02-01T19:16:06.039Z,50.20
2018-02-01T19:18:32.671Z,50.40
2018-02-01T19:20:59.273Z,50.50
2018-02-01T19:23:25.851Z,50.30
2018-02-01T19:25:52.554Z,50.40
2018-02-01T19:28:19.127Z,49.30
2018-02-01T19:30:45.770Z,50.00
2018-02-01T19:33:12.387Z,50.30
2018-02-01T19:35:38.950Z,50.60
2018-02-01T19:38:06.259Z,51.00
2018-02-01T19:40:32.863Z,51.00
2018-02-01T19:43:00.174Z,50.90
2018-02-01T19:45:26.785Z,50.70
2018-02-01T19:47:54.342Z,49.90
2018-02-01T19:50:21.036Z,49.70
2018-02-01T19:52:47.789Z,49.90
2018-02-01T19:55:14.360Z,49.90
2018-02-01T19:57:40.962Z,50.30
2018-02-01T20:00:07.552Z,50.00
2018-02-01T20:02:34.170Z,50.40
2018-02-01T20:05:00.727Z,50.40
2018-02-01T20:07:27.316Z,50.00
2018-02-01T20:09:53.890Z,50.30
2018-02-01T20:12:20.505Z,50.30
2018-02-01T20:14:47.120Z,50.10
2018-02-01T20:17:14.417Z,49.90
2018-02-01T20:19:41.025Z,50.00
2018-02-01T20:22:07.649Z,50.10
2018-02-01T20:24:34.230Z,50.10
2018-02-01T20:27:01.632Z,50.30
2018-02-01T20:29:28.950Z,50.10
2018-02-01T20:31:55.522Z,50.10
2018-02-01T20:34:22.897Z,50.40
2018-02-01T20:36:49.448Z,50.40
2018-02-01T20:39:16.061Z,50.70
2018-02-01T20:41:42.619Z,51.00
2018-02-01T20:44:09.220Z,50.70
2018-02-01T20:46:36.560Z,50.80
2018-02-01T20:49:03.134Z,50.70
2018-02-01T20:51:29.777Z,51.00
2018-02-01T20:53:56.365Z,51.30
2018-02-01T20:56:22.996Z,52.00
2018-02-01T20:58:49.555Z,51.50
2018-02-01T21:01:16.157Z,51.70
2018-02-01T21:03:42.794Z,51.70
2018-02-01T21:06:09.465Z,51.40
2018-02-01T21:08:36.759Z,53.90
2018-02-01T21:11:03.373Z,53.90
2018-02-01T21:13:29.957Z,55.60
2018-02-01T21:15:56.605Z,58.30
2018-02-01T21:18:23.167Z,58.30
2018-02-01T21:20:49.995Z,58.30
2018-02-01T21:23:16.555Z,58.30
2018-02-01T21:25:43.878Z,58.30
2018-02-01T21:28:11.491Z,58.30
2018-02-01T21:30:38.076Z,58.30
2018-02-01T21:33:04.650Z,57.80
2018-02-01T21:35:31.288Z,57.80
2018-02-01T21:37:57.880Z,57.60
2018-02-01T21:40:24.500Z,57.20
2018-02-01T21:42:51.094Z,56.80
2018-02-01T21:45:17.610Z,57.20
2018-02-01T21:47:44.953Z,58.20
2018-02-01T21:50:12.536Z,58.20
2018-02-01T21:52:39.202Z,58.10
2018-02-01T21:55:05.818Z,58.20
2018-02-01T21:57:32.479Z,58.60
2018-02-01T21:59:59.802Z,59.10
2018-02-01T22:02:26.616Z,59.00
2018-02-01T22:04:53.202Z,59.30
2018-02-01T22:07:23.790Z,59.50
2018-02-01T22:09:52.161Z,59.50
2018-02-01T22:12:19.711Z,59.50
2018-02-01T22:14:46.920Z,59.50
2018-02-01T22:17:13.615Z,60.00
2018-02-01T22:19:40.219Z,60.10
2018-02-01T22:22:06.850Z,60.10
2018-02-01T22:24:33.611Z,60.30
2018-02-01T22:27:02.671Z,60.90
2018-02-01T22:29:29.278Z,61.00
2018-02-01T22:31:55.911Z,61.00
2018-02-01T22:34:22.549Z,60.40
2018-02-01T22:36:49.138Z,60.00
2018-02-01T22:39:16.505Z,59.90
2018-02-01T22:41:43.205Z,59.90
2018-02-01T22:44:09.807Z,59.80
2018-02-01T22:46:36.445Z,59.10
2018-02-01T22:49:03.179Z,58.80
2018-02-01T22:51:29.867Z,58.90
2018-02-01T22:53:57.233Z,59.10
2018-02-01T22:56:23.871Z,59.00
2018-02-01T22:58:50.596Z,59.20
2018-02-01T23:01:17.250Z,59.40
2018-02-01T23:03:43.901Z,58.90
2018-02-01T23:06:10.572Z,60.00
2018-02-01T23:08:37.315Z,59.30
2018-02-01T23:11:04.031Z,59.30
2018-02-01T23:13:30.654Z,59.30
2018-02-01T23:15:57.307Z,58.50
2018-02-01T23:18:23.964Z,58.30
2018-02-01T23:20:50.574Z,58.20
2018-02-01T23:23:17.192Z,58.50
2018-02-01T23:25:43.830Z,58.20
2018-02-01T23:28:11.202Z,57.80
2018-02-01T23:30:37.817Z,57.80
2018-02-01T23:33:04.450Z,57.70
2018-02-01T23:35:31.057Z,57.60
2018-02-01T23:37:57.668Z,57.70
2018-02-01T23:40:25.080Z,56.50
2018-02-01T23:42:51.717Z,55.00
2018-02-01T23:45:18.335Z,54.70
2018-02-01T23:47:44.975Z,53.60
2018-02-01T23:50:11.620Z,53.40
2018-02-01T23:52:38.262Z,53.80
2018-02-01T23:55:04.935Z,53.80
2018-02-01T23:57:31.529Z,53.30
2018-02-01T23:59:58.105Z,53.50
